CLX2605 UTAA-ELLX
Flight info
| Callsign | CLX2605 |
|---|---|
| Flight time | N/A |
| Altitude | 34000 |
| Route | MAM11D MAMED B449 DUKAN L850 ADEKI N644 ROLIN UN644 KARDE UL851 KUGOS/K0902F360 DCT ROMOK L851 ADINA/N0489F360 DCT MIVNU DCT LEBAT DCT EVRIK DCT ERGUZ DCT ABETI DCT SUBEN T161 AKINI T159 PETIX Z744 COSJE T892 RIDSU Z114 DONAB Y180 BITBU |
| Aircraft | B744/H-SDE3FGHIM1M2RWXY/LB1 |
Departure
| Time | 2026-05-01 12:08 |
|---|---|
| Airport | Ashgabat International Airport (UTAA) |
Arrival
| Time | N/A |
|---|---|
| Airport | Luxembourg-Findel International Airport (ELLX) |
| Time | Latitude | Longitude | Altitude | Speed | Heading |
|---|---|---|---|---|---|
| 2026-05-01 11:40 | 37.98719 | 58.35217 | 698 ft | 0 kts | 30° |
| 2026-05-01 11:54 | 37.98718 | 58.35216 | 698 ft | 1 kts | 30° |
| 2026-05-01 11:54 | 37.98705 | 58.35207 | 698 ft | 2 kts | 30° |
| 2026-05-01 11:54 | 37.98700 | 58.35203 | 698 ft | 1 kts | 30° |
| 2026-05-01 11:55 | 37.98687 | 58.35194 | 698 ft | 2 kts | 30° |
| 2026-05-01 11:55 | 37.98679 | 58.35188 | 698 ft | 2 kts | 29° |
| 2026-05-01 11:55 | 37.98665 | 58.35181 | 698 ft | 2 kts | 9° |
| 2026-05-01 11:55 | 37.98650 | 58.35180 | 698 ft | 2 kts | 353° |
| 2026-05-01 11:56 | 37.98636 | 58.35184 | 698 ft | 2 kts | 337° |
| 2026-05-01 11:56 | 37.98623 | 58.35193 | 697 ft | 2 kts | 321° |
| 2026-05-01 11:56 | 37.98613 | 58.35207 | 697 ft | 2 kts | 304° |
| 2026-05-01 11:56 | 37.98610 | 58.35212 | 697 ft | 0 kts | 299° |
| 2026-05-01 11:57 | 37.98627 | 58.35177 | 698 ft | 7 kts | 299° |
| 2026-05-01 11:57 | 37.98653 | 58.35118 | 698 ft | 7 kts | 299° |
| 2026-05-01 11:57 | 37.98680 | 58.35058 | 698 ft | 7 kts | 299° |
| 2026-05-01 11:57 | 37.98706 | 58.34999 | 698 ft | 7 kts | 299° |
| 2026-05-01 11:58 | 37.98726 | 58.34954 | 698 ft | 4 kts | 295° |
| 2026-05-01 11:58 | 37.98727 | 58.34916 | 698 ft | 4 kts | 253° |
| 2026-05-01 11:58 | 37.98686 | 58.34859 | 698 ft | 4 kts | 243° |
| 2026-05-01 11:59 | 37.98683 | 58.34821 | 698 ft | 4 kts | 279° |
| 2026-05-01 11:59 | 37.98699 | 58.34779 | 698 ft | 7 kts | 300° |
| 2026-05-01 11:59 | 37.98726 | 58.34720 | 698 ft | 7 kts | 299° |
| 2026-05-01 12:00 | 37.98779 | 58.34600 | 698 ft | 7 kts | 299° |
| 2026-05-01 12:00 | 37.98806 | 58.34541 | 698 ft | 7 kts | 299° |
| 2026-05-01 12:00 | 37.98859 | 58.34423 | 697 ft | 7 kts | 299° |
| 2026-05-01 12:01 | 37.98886 | 58.34363 | 696 ft | 7 kts | 299° |
| 2026-05-01 12:01 | 37.98912 | 58.34304 | 696 ft | 7 kts | 299° |
| 2026-05-01 12:01 | 37.98939 | 58.34244 | 695 ft | 7 kts | 299° |
| 2026-05-01 12:01 | 37.98966 | 58.34185 | 695 ft | 7 kts | 299° |
| 2026-05-01 12:02 | 37.98992 | 58.34125 | 694 ft | 7 kts | 299° |
| 2026-05-01 12:02 | 37.99019 | 58.34066 | 694 ft | 7 kts | 299° |
| 2026-05-01 12:02 | 37.99046 | 58.34006 | 694 ft | 7 kts | 299° |
| 2026-05-01 12:02 | 37.99072 | 58.33946 | 694 ft | 7 kts | 299° |
| 2026-05-01 12:03 | 37.99099 | 58.33887 | 694 ft | 7 kts | 299° |
| 2026-05-01 12:03 | 37.99125 | 58.33827 | 695 ft | 7 kts | 299° |
| 2026-05-01 12:03 | 37.99147 | 58.33778 | 694 ft | 4 kts | 299° |
| 2026-05-01 12:03 | 37.99153 | 58.33765 | 694 ft | 1 kts | 299° |
| 2026-05-01 12:04 | 37.99158 | 58.33735 | 694 ft | 4 kts | 264° |
| 2026-05-01 12:04 | 37.99145 | 58.33703 | 694 ft | 4 kts | 225° |
| 2026-05-01 12:04 | 37.99134 | 58.33694 | 695 ft | 1 kts | 209° |
| 2026-05-01 12:04 | 37.99134 | 58.33693 | 695 ft | 0 kts | 209° |
| 2026-05-01 12:05 | 37.99133 | 58.33693 | 694 ft | 0 kts | 209° |
| 2026-05-01 12:06 | 37.99122 | 58.33685 | 695 ft | 7 kts | 209° |
| 2026-05-01 12:06 | 37.99057 | 58.33640 | 697 ft | 12 kts | 208° |
| 2026-05-01 12:06 | 37.98993 | 58.33601 | 697 ft | 7 kts | 175° |
| 2026-05-01 12:06 | 37.98975 | 58.33620 | 697 ft | 1 kts | 120° |
| 2026-05-01 12:07 | 37.98972 | 58.33626 | 697 ft | 0 kts | 120° |
| 2026-05-01 12:07 | 37.98972 | 58.33627 | 697 ft | 0 kts | 120° |
| 2026-05-01 12:07 | 37.98922 | 58.33741 | 698 ft | 45 kts | 116° |
| 2026-05-01 12:07 | 37.98631 | 58.34395 | 698 ft | 123 kts | 118° |
| 2026-05-01 12:08 | 37.98094 | 58.35585 | 768 ft | 181 kts | 119° |
| 2026-05-01 12:08 | 37.97445 | 58.37058 | 1297 ft | 200 kts | 113° |
| 2026-05-01 12:08 | 37.97165 | 58.38787 | 2048 ft | 210 kts | 85° |
| 2026-05-01 12:08 | 37.97554 | 58.40499 | 2884 ft | 207 kts | 59° |
| 2026-05-01 12:09 | 37.98535 | 58.41853 | 3480 ft | 215 kts | 33° |
| 2026-05-01 12:09 | 37.99921 | 58.42514 | 4211 ft | 218 kts | 7° |
| 2026-05-01 12:09 | 38.01421 | 58.42347 | 4871 ft | 224 kts | 342° |
| 2026-05-01 12:09 | 38.02775 | 58.41351 | 5518 ft | 231 kts | 316° |
| 2026-05-01 12:10 | 38.03702 | 58.39698 | 6142 ft | 238 kts | 292° |
| 2026-05-01 12:10 | 38.04715 | 58.35582 | 7304 ft | 255 kts | 292° |
| 2026-05-01 12:10 | 38.05447 | 58.33531 | 7826 ft | 262 kts | 297° |
| 2026-05-01 12:11 | 38.07309 | 58.29577 | 9168 ft | 264 kts | 304° |
| 2026-05-01 12:11 | 38.08393 | 58.27684 | 9801 ft | 267 kts | 307° |
| 2026-05-01 12:11 | 38.09561 | 58.25841 | 10374 ft | 272 kts | 309° |
| 2026-05-01 12:12 | 38.10816 | 58.24010 | 10908 ft | 276 kts | 311° |
| 2026-05-01 12:12 | 38.12125 | 58.22211 | 11389 ft | 280 kts | 313° |
| 2026-05-01 12:12 | 38.13492 | 58.20429 | 11843 ft | 286 kts | 314° |
| 2026-05-01 12:12 | 38.14919 | 58.18642 | 12246 ft | 294 kts | 315° |
| 2026-05-01 12:13 | 38.16422 | 58.16822 | 12550 ft | 304 kts | 316° |
| 2026-05-01 12:13 | 38.18002 | 58.14951 | 12720 ft | 319 kts | 316° |
| 2026-05-01 12:13 | 38.19681 | 58.13005 | 12947 ft | 332 kts | 317° |
| 2026-05-01 12:13 | 38.21391 | 58.11051 | 13505 ft | 333 kts | 317° |
| 2026-05-01 12:14 | 38.23120 | 58.09105 | 14026 ft | 335 kts | 317° |
| 2026-05-01 12:14 | 38.24873 | 58.07144 | 14513 ft | 338 kts | 317° |
| 2026-05-01 12:14 | 38.26658 | 58.05161 | 15014 ft | 341 kts | 317° |
| 2026-05-01 12:14 | 38.28444 | 58.03179 | 15505 ft | 343 kts | 317° |
| 2026-05-01 12:15 | 38.30235 | 58.01198 | 15988 ft | 345 kts | 317° |
| 2026-05-01 12:15 | 38.32040 | 57.99201 | 16484 ft | 346 kts | 318° |
| 2026-05-01 12:15 | 38.33885 | 57.97167 | 16932 ft | 349 kts | 318° |
| 2026-05-01 12:15 | 38.35714 | 57.95153 | 17401 ft | 350 kts | 318° |
| 2026-05-01 12:16 | 38.37553 | 57.93122 | 17842 ft | 352 kts | 318° |
| 2026-05-01 12:16 | 38.39408 | 57.91076 | 18216 ft | 356 kts | 318° |
| 2026-05-01 12:16 | 38.41270 | 57.89026 | 18685 ft | 356 kts | 319° |
| 2026-05-01 12:16 | 38.43156 | 57.86948 | 19053 ft | 360 kts | 319° |
| 2026-05-01 12:17 | 38.45058 | 57.84856 | 19503 ft | 360 kts | 319° |
| 2026-05-01 12:17 | 38.46938 | 57.82790 | 19920 ft | 362 kts | 319° |
| 2026-05-01 12:17 | 38.48852 | 57.80680 | 20300 ft | 366 kts | 319° |
| 2026-05-01 12:17 | 38.50787 | 57.78554 | 20959 ft | 372 kts | 319° |
| 2026-05-01 12:18 | 38.52760 | 57.76384 | 21763 ft | 374 kts | 319° |
| 2026-05-01 12:18 | 38.54721 | 57.74221 | 22499 ft | 376 kts | 319° |
| 2026-05-01 12:18 | 38.56702 | 57.72027 | 23195 ft | 380 kts | 319° |
| 2026-05-01 12:18 | 38.58696 | 57.69815 | 23863 ft | 383 kts | 319° |
| 2026-05-01 12:19 | 38.60673 | 57.67525 | 24498 ft | 385 kts | 312° |
| 2026-05-01 12:19 | 38.62223 | 57.64793 | 25026 ft | 389 kts | 297° |
| 2026-05-01 12:19 | 38.63243 | 57.61560 | 25632 ft | 390 kts | 288° |
| 2026-05-01 12:19 | 38.64115 | 57.58274 | 26194 ft | 393 kts | 290° |
| 2026-05-01 12:20 | 38.65060 | 57.54989 | 26736 ft | 396 kts | 290° |
| 2026-05-01 12:20 | 38.66007 | 57.51667 | 27299 ft | 399 kts | 290° |
| 2026-05-01 12:20 | 38.66956 | 57.48332 | 27803 ft | 402 kts | 290° |
| 2026-05-01 12:20 | 38.67910 | 57.44989 | 28329 ft | 404 kts | 290° |
| 2026-05-01 12:21 | 38.68868 | 57.41630 | 28829 ft | 406 kts | 290° |
| 2026-05-01 12:21 | 38.69836 | 57.38236 | 29340 ft | 407 kts | 290° |
| 2026-05-01 12:21 | 38.70802 | 57.34824 | 29830 ft | 409 kts | 289° |
| 2026-05-01 12:21 | 38.71773 | 57.31390 | 30263 ft | 411 kts | 289° |
| 2026-05-01 12:22 | 38.72750 | 57.27948 | 30667 ft | 412 kts | 289° |
| 2026-05-01 12:22 | 38.73727 | 57.24503 | 31062 ft | 414 kts | 289° |
| 2026-05-01 12:22 | 38.74695 | 57.21084 | 31425 ft | 416 kts | 289° |
| 2026-05-01 12:22 | 38.75682 | 57.17590 | 31754 ft | 418 kts | 289° |
| 2026-05-01 12:23 | 38.76676 | 57.14072 | 32050 ft | 421 kts | 289° |
| 2026-05-01 12:23 | 38.77661 | 57.10567 | 32347 ft | 424 kts | 289° |
| 2026-05-01 12:23 | 38.78669 | 57.06998 | 32649 ft | 426 kts | 289° |
| 2026-05-01 12:23 | 38.79662 | 57.03451 | 32941 ft | 428 kts | 288° |
| 2026-05-01 12:24 | 38.80673 | 56.99851 | 33236 ft | 430 kts | 289° |
| 2026-05-01 12:24 | 38.81670 | 56.96288 | 33513 ft | 431 kts | 289° |
| 2026-05-01 12:24 | 38.82691 | 56.92646 | 33781 ft | 433 kts | 288° |
| 2026-05-01 12:24 | 38.83713 | 56.89001 | 34026 ft | 434 kts | 288° |
| 2026-05-01 12:25 | 38.84727 | 56.85387 | 34261 ft | 435 kts | 288° |
| 2026-05-01 12:25 | 38.86768 | 56.78068 | 34734 ft | 437 kts | 288° |
| 2026-05-01 12:25 | 38.87780 | 56.74428 | 34921 ft | 438 kts | 288° |
| 2026-05-01 12:26 | 38.88811 | 56.70718 | 35125 ft | 440 kts | 288° |
| 2026-05-01 12:26 | 38.90840 | 56.63372 | 35517 ft | 443 kts | 288° |
| 2026-05-01 12:26 | 38.91877 | 56.59620 | 35727 ft | 445 kts | 288° |
| 2026-05-01 12:27 | 38.92907 | 56.55891 | 35934 ft | 449 kts | 287° |
| 2026-05-01 12:27 | 38.95014 | 56.48243 | 36126 ft | 461 kts | 287° |
| 2026-05-01 12:28 | 38.98224 | 56.36528 | 36139 ft | 467 kts | 287° |
| 2026-05-01 12:29 | 39.01205 | 56.24723 | 36083 ft | 462 kts | 284° |
| 2026-05-01 12:29 | 39.03937 | 56.12848 | 36114 ft | 463 kts | 284° |
| 2026-05-01 12:30 | 39.06650 | 56.00988 | 36119 ft | 464 kts | 284° |
| 2026-05-01 12:31 | 39.08456 | 55.93050 | 36095 ft | 464 kts | 284° |
| 2026-05-01 12:31 | 39.10271 | 55.85053 | 36105 ft | 464 kts | 284° |
| 2026-05-01 12:32 | 39.12056 | 55.77124 | 36110 ft | 464 kts | 284° |
| 2026-05-01 12:32 | 39.14739 | 55.65212 | 36094 ft | 461 kts | 284° |
| 2026-05-01 12:33 | 39.16494 | 55.57304 | 36113 ft | 463 kts | 284° |
| 2026-05-01 12:33 | 39.18277 | 55.49314 | 36110 ft | 463 kts | 284° |
| 2026-05-01 12:34 | 39.20042 | 55.41369 | 36111 ft | 462 kts | 284° |
| 2026-05-01 12:34 | 39.21800 | 55.33422 | 36101 ft | 462 kts | 284° |
| 2026-05-01 12:35 | 39.23543 | 55.25502 | 36102 ft | 462 kts | 284° |
| 2026-05-01 12:35 | 39.25290 | 55.17542 | 36099 ft | 462 kts | 284° |
| 2026-05-01 12:36 | 39.27023 | 55.09623 | 36094 ft | 461 kts | 284° |
| 2026-05-01 12:36 | 39.28746 | 55.01693 | 36101 ft | 461 kts | 284° |
| 2026-05-01 12:37 | 39.30468 | 54.93765 | 36091 ft | 461 kts | 284° |
| 2026-05-01 12:37 | 39.32192 | 54.85800 | 36087 ft | 461 kts | 284° |
| 2026-05-01 12:38 | 39.33919 | 54.77785 | 36097 ft | 461 kts | 284° |
| 2026-05-01 12:38 | 39.35628 | 54.69819 | 36086 ft | 461 kts | 284° |
| 2026-05-01 12:39 | 39.37320 | 54.61903 | 36091 ft | 461 kts | 284° |
| 2026-05-01 12:39 | 39.39018 | 54.53926 | 36098 ft | 462 kts | 284° |
| 2026-05-01 12:40 | 39.40723 | 54.45918 | 36099 ft | 461 kts | 284° |
| 2026-05-01 12:40 | 39.42411 | 54.37940 | 36094 ft | 460 kts | 284° |
| 2026-05-01 12:41 | 39.44088 | 54.29974 | 36086 ft | 460 kts | 283° |
| 2026-05-01 12:41 | 39.45760 | 54.21996 | 36079 ft | 461 kts | 283° |
| 2026-05-01 12:42 | 39.47431 | 54.14054 | 36084 ft | 461 kts | 283° |
| 2026-05-01 12:42 | 39.49085 | 54.06080 | 36078 ft | 461 kts | 283° |
| 2026-05-01 12:43 | 39.50725 | 53.98069 | 36077 ft | 461 kts | 283° |
| 2026-05-01 12:43 | 39.52364 | 53.90071 | 36073 ft | 461 kts | 283° |
| 2026-05-01 12:44 | 39.53993 | 53.82071 | 36075 ft | 462 kts | 283° |
| 2026-05-01 12:45 | 39.57237 | 53.66042 | 36073 ft | 459 kts | 283° |
| 2026-05-01 12:45 | 39.58836 | 53.58091 | 36087 ft | 459 kts | 283° |
| 2026-05-01 12:46 | 39.60440 | 53.50087 | 36089 ft | 460 kts | 283° |
| 2026-05-01 12:46 | 39.62038 | 53.42079 | 36087 ft | 460 kts | 283° |
| 2026-05-01 12:47 | 39.63633 | 53.34046 | 36091 ft | 460 kts | 282° |
| 2026-05-01 12:47 | 39.65217 | 53.26020 | 36100 ft | 460 kts | 283° |
| 2026-05-01 12:48 | 39.66800 | 53.18005 | 36097 ft | 459 kts | 282° |
| 2026-05-01 12:48 | 39.68360 | 53.10052 | 36090 ft | 458 kts | 282° |
| 2026-05-01 12:49 | 39.69926 | 53.02042 | 36107 ft | 458 kts | 282° |
| 2026-05-01 12:49 | 39.71490 | 52.94051 | 36106 ft | 460 kts | 282° |
| 2026-05-01 12:50 | 39.73040 | 52.86002 | 36102 ft | 459 kts | 282° |
| 2026-05-01 12:50 | 39.74624 | 52.77956 | 36105 ft | 460 kts | 283° |
| 2026-05-01 12:51 | 39.76202 | 52.69979 | 36094 ft | 460 kts | 283° |
| 2026-05-01 12:52 | 39.78580 | 52.57899 | 36101 ft | 460 kts | 283° |
| 2026-05-01 12:52 | 39.80930 | 52.45887 | 36101 ft | 459 kts | 283° |
| 2026-05-01 12:53 | 39.83267 | 52.33842 | 36108 ft | 459 kts | 282° |
| 2026-05-01 12:54 | 39.84817 | 52.25809 | 36112 ft | 459 kts | 282° |
| 2026-05-01 12:54 | 39.87125 | 52.13821 | 36114 ft | 458 kts | 282° |
| 2026-05-01 12:55 | 39.89433 | 52.01741 | 36113 ft | 459 kts | 282° |
| 2026-05-01 12:56 | 39.90955 | 51.93753 | 36119 ft | 459 kts | 282° |
| 2026-05-01 12:56 | 39.92485 | 51.85666 | 36114 ft | 459 kts | 282° |
| 2026-05-01 12:57 | 39.93995 | 51.77654 | 36122 ft | 460 kts | 282° |
| 2026-05-01 12:57 | 39.96271 | 51.65573 | 36112 ft | 459 kts | 282° |
| 2026-05-01 12:58 | 39.97776 | 51.57509 | 36104 ft | 458 kts | 282° |
| 2026-05-01 12:59 | 40.00505 | 51.45650 | 36098 ft | 461 kts | 293° |
| 2026-05-01 12:59 | 40.04485 | 51.34204 | 36107 ft | 462 kts | 291° |
| 2026-05-01 13:00 | 40.08349 | 51.22775 | 36103 ft | 461 kts | 291° |
| 2026-05-01 13:01 | 40.12196 | 51.11331 | 36094 ft | 460 kts | 291° |
| 2026-05-01 13:02 | 40.16049 | 50.99822 | 36101 ft | 462 kts | 291° |
| 2026-05-01 13:07 | 40.43957 | 50.15324 | 36051 ft | 460 kts | 290° |
| 2026-05-01 13:08 | 40.46461 | 50.07592 | 36048 ft | 460 kts | 290° |
| 2026-05-01 13:08 | 40.48997 | 49.99901 | 36029 ft | 460 kts | 291° |
| 2026-05-01 13:09 | 40.51556 | 49.92256 | 36042 ft | 461 kts | 291° |
| 2026-05-01 13:09 | 40.54141 | 49.84517 | 36044 ft | 461 kts | 291° |
| 2026-05-01 13:10 | 40.56701 | 49.76814 | 36028 ft | 461 kts | 291° |
| 2026-05-01 13:10 | 40.59259 | 49.69116 | 36022 ft | 461 kts | 291° |
| 2026-05-01 13:11 | 40.61800 | 49.61415 | 36016 ft | 461 kts | 291° |
| 2026-05-01 13:11 | 40.64266 | 49.53628 | 36010 ft | 461 kts | 289° |
| 2026-05-01 13:12 | 40.66599 | 49.45849 | 35996 ft | 461 kts | 289° |
| 2026-05-01 13:12 | 40.68960 | 49.37974 | 35982 ft | 461 kts | 289° |
| 2026-05-01 13:13 | 40.71283 | 49.30165 | 35994 ft | 461 kts | 288° |
| 2026-05-01 13:13 | 40.73541 | 49.22292 | 35981 ft | 460 kts | 285° |
| 2026-05-01 13:14 | 40.75518 | 49.14275 | 35983 ft | 460 kts | 285° |
| 2026-05-01 13:14 | 40.77490 | 49.06313 | 35985 ft | 458 kts | 285° |
| 2026-05-01 13:15 | 40.79456 | 48.98376 | 35988 ft | 458 kts | 285° |
| 2026-05-01 13:15 | 40.81424 | 48.90396 | 35998 ft | 459 kts | 285° |
| 2026-05-01 13:16 | 40.83394 | 48.82386 | 36011 ft | 460 kts | 285° |
| 2026-05-01 13:16 | 40.85348 | 48.74390 | 36014 ft | 460 kts | 285° |
| 2026-05-01 13:17 | 40.89246 | 48.58354 | 36027 ft | 458 kts | 285° |
| 2026-05-01 13:18 | 40.92141 | 48.46410 | 36069 ft | 457 kts | 285° |
| 2026-05-01 13:18 | 40.94071 | 48.38409 | 36085 ft | 457 kts | 285° |
| 2026-05-01 13:19 | 40.95987 | 48.30420 | 36095 ft | 457 kts | 285° |
| 2026-05-01 13:20 | 40.98851 | 48.18442 | 36110 ft | 456 kts | 285° |
| 2026-05-01 13:20 | 41.00750 | 48.10453 | 36111 ft | 455 kts | 284° |
| 2026-05-01 13:21 | 41.03586 | 47.98518 | 36102 ft | 455 kts | 284° |
| 2026-05-01 13:21 | 41.05451 | 47.90540 | 36102 ft | 455 kts | 284° |
| 2026-05-01 13:22 | 41.07191 | 47.82565 | 36100 ft | 455 kts | 283° |
| 2026-05-01 13:22 | 41.08933 | 47.74502 | 36090 ft | 455 kts | 283° |
| 2026-05-01 13:23 | 41.10643 | 47.66489 | 36099 ft | 455 kts | 283° |
| 2026-05-01 13:23 | 41.12352 | 47.58441 | 36103 ft | 455 kts | 283° |
| 2026-05-01 13:24 | 41.14063 | 47.50362 | 36106 ft | 455 kts | 283° |
| 2026-05-01 13:25 | 41.16605 | 47.38305 | 36123 ft | 454 kts | 283° |
| 2026-05-01 13:25 | 41.18282 | 47.30300 | 36118 ft | 454 kts | 282° |
| 2026-05-01 13:26 | 41.19964 | 47.22258 | 36099 ft | 454 kts | 282° |
| 2026-05-01 13:26 | 41.21639 | 47.14188 | 36077 ft | 454 kts | 282° |
| 2026-05-01 13:27 | 41.23309 | 47.06127 | 36053 ft | 453 kts | 282° |
| 2026-05-01 13:27 | 41.25786 | 46.94104 | 36030 ft | 452 kts | 282° |
| 2026-05-01 13:28 | 41.28269 | 46.82018 | 36033 ft | 455 kts | 282° |
| 2026-05-01 13:29 | 41.30993 | 46.65692 | 36036 ft | 453 kts | 278° |
| 2026-05-01 13:31 | 41.34427 | 46.41142 | 36036 ft | 452 kts | 278° |
| 2026-05-01 13:32 | 41.37231 | 46.20677 | 36024 ft | 451 kts | 277° |
| 2026-05-01 13:33 | 41.40008 | 46.00190 | 36021 ft | 452 kts | 277° |
| 2026-05-01 13:34 | 41.42215 | 45.83690 | 36049 ft | 454 kts | 277° |
| 2026-05-01 13:35 | 41.43844 | 45.71349 | 36043 ft | 452 kts | 277° |
| 2026-05-01 13:36 | 41.45458 | 45.59040 | 36037 ft | 451 kts | 277° |
| 2026-05-01 13:36 | 41.47065 | 45.46738 | 36039 ft | 453 kts | 277° |
| 2026-05-01 13:37 | 41.48119 | 45.38480 | 36021 ft | 452 kts | 277° |
| 2026-05-01 13:37 | 41.48872 | 45.30213 | 36038 ft | 451 kts | 274° |
| 2026-05-01 13:38 | 41.49908 | 45.17790 | 36043 ft | 451 kts | 274° |
| 2026-05-01 13:39 | 41.50580 | 45.09508 | 36031 ft | 451 kts | 274° |
| 2026-05-01 13:39 | 41.51250 | 45.01200 | 36022 ft | 450 kts | 273° |
| 2026-05-01 13:40 | 41.51901 | 44.92957 | 36022 ft | 450 kts | 274° |
| 2026-05-01 13:40 | 41.52554 | 44.84686 | 36032 ft | 451 kts | 274° |
| 2026-05-01 13:41 | 41.53200 | 44.76401 | 36021 ft | 450 kts | 274° |
| 2026-05-01 13:41 | 41.53845 | 44.68093 | 36027 ft | 449 kts | 274° |
| 2026-05-01 13:42 | 41.54479 | 44.59811 | 36023 ft | 449 kts | 274° |
| 2026-05-01 13:42 | 41.55112 | 44.51556 | 36027 ft | 450 kts | 273° |
| 2026-05-01 13:43 | 41.55726 | 44.43316 | 36033 ft | 450 kts | 274° |
| 2026-05-01 13:43 | 41.56353 | 44.34999 | 36021 ft | 450 kts | 274° |
| 2026-05-01 13:44 | 41.56951 | 44.26730 | 36043 ft | 449 kts | 272° |
| 2026-05-01 13:44 | 41.57568 | 44.18496 | 36041 ft | 449 kts | 274° |
| 2026-05-01 13:45 | 41.58227 | 44.10212 | 36050 ft | 450 kts | 274° |
| 2026-05-01 13:45 | 41.58877 | 44.01930 | 36052 ft | 450 kts | 273° |
| 2026-05-01 13:46 | 41.59514 | 43.93662 | 36067 ft | 450 kts | 273° |
| 2026-05-01 13:46 | 41.60144 | 43.85415 | 36065 ft | 449 kts | 273° |
| 2026-05-01 13:47 | 41.60767 | 43.77118 | 36069 ft | 449 kts | 273° |
| 2026-05-01 13:47 | 41.61385 | 43.68856 | 36062 ft | 449 kts | 273° |
| 2026-05-01 13:48 | 41.61999 | 43.60583 | 36053 ft | 448 kts | 273° |
| 2026-05-01 13:48 | 41.62598 | 43.52337 | 36066 ft | 450 kts | 273° |
| 2026-05-01 13:49 | 41.63198 | 43.44027 | 36057 ft | 450 kts | 274° |
| 2026-05-01 13:49 | 41.63797 | 43.35742 | 36041 ft | 448 kts | 274° |
| 2026-05-01 13:50 | 41.64392 | 43.27497 | 36046 ft | 448 kts | 272° |
| 2026-05-01 13:50 | 41.64985 | 43.19205 | 36018 ft | 449 kts | 272° |
| 2026-05-01 13:51 | 41.65559 | 43.10956 | 36042 ft | 449 kts | 273° |
| 2026-05-01 13:51 | 41.66136 | 43.02687 | 36034 ft | 449 kts | 273° |
| 2026-05-01 13:52 | 41.66703 | 42.94398 | 36028 ft | 449 kts | 273° |
| 2026-05-01 13:52 | 41.67251 | 42.86101 | 36035 ft | 448 kts | 272° |
| 2026-05-01 13:53 | 41.67815 | 42.77804 | 36037 ft | 448 kts | 273° |
| 2026-05-01 13:53 | 41.68635 | 42.65405 | 36024 ft | 448 kts | 272° |
| 2026-05-01 13:54 | 41.69178 | 42.57172 | 36037 ft | 448 kts | 272° |
| 2026-05-01 13:54 | 41.69710 | 42.48873 | 36034 ft | 448 kts | 272° |
| 2026-05-01 13:55 | 41.70236 | 42.40591 | 36030 ft | 448 kts | 273° |
| 2026-05-01 13:55 | 41.70753 | 42.32326 | 36033 ft | 447 kts | 272° |
| 2026-05-01 13:56 | 41.71273 | 42.24072 | 36037 ft | 447 kts | 272° |
| 2026-05-01 13:56 | 41.71773 | 42.15845 | 36025 ft | 446 kts | 272° |
| 2026-05-01 13:57 | 41.72174 | 42.08978 | 36027 ft | 446 kts | 272° |
| 2026-05-01 13:57 | 41.72763 | 41.99354 | 36020 ft | 446 kts | 272° |
| 2026-05-01 13:58 | 41.73255 | 41.91156 | 36004 ft | 446 kts | 272° |
| 2026-05-01 13:58 | 41.73739 | 41.82908 | 35974 ft | 444 kts | 272° |
| 2026-05-01 13:59 | 41.74213 | 41.74690 | 35967 ft | 444 kts | 272° |
| 2026-05-01 13:59 | 41.74677 | 41.66483 | 35961 ft | 444 kts | 272° |
| 2026-05-01 14:00 | 41.75142 | 41.58267 | 35961 ft | 444 kts | 272° |
| 2026-05-01 14:00 | 41.75600 | 41.50019 | 35965 ft | 445 kts | 272° |
| 2026-05-01 14:01 | 41.76049 | 41.41804 | 35963 ft | 445 kts | 272° |
| 2026-05-01 14:01 | 41.76494 | 41.33604 | 35965 ft | 443 kts | 271° |
| 2026-05-01 14:02 | 41.76934 | 41.25386 | 35969 ft | 443 kts | 271° |
| 2026-05-01 14:02 | 41.77361 | 41.17218 | 35969 ft | 441 kts | 271° |
| 2026-05-01 14:03 | 41.77789 | 41.09016 | 35967 ft | 442 kts | 271° |
| 2026-05-01 14:03 | 41.78207 | 41.00879 | 35971 ft | 443 kts | 271° |
| 2026-05-01 14:04 | 41.78621 | 40.92684 | 35978 ft | 443 kts | 271° |
| 2026-05-01 14:04 | 41.78963 | 40.85852 | 35983 ft | 442 kts | 271° |
| 2026-05-01 14:05 | 41.79442 | 40.76294 | 35983 ft | 442 kts | 271° |
| 2026-05-01 14:05 | 41.79820 | 40.68102 | 35982 ft | 442 kts | 271° |
| 2026-05-01 14:06 | 41.80196 | 40.59906 | 35983 ft | 442 kts | 271° |
| 2026-05-01 14:06 | 41.80560 | 40.51727 | 35985 ft | 441 kts | 271° |
| 2026-05-01 14:07 | 41.80915 | 40.43577 | 35988 ft | 442 kts | 271° |
| 2026-05-01 14:08 | 41.81441 | 40.31260 | 35994 ft | 442 kts | 270° |
| 2026-05-01 14:08 | 41.81784 | 40.23053 | 35994 ft | 441 kts | 270° |
| 2026-05-01 14:09 | 41.82099 | 40.14901 | 35994 ft | 442 kts | 270° |
| 2026-05-01 14:09 | 41.82428 | 40.06685 | 35993 ft | 442 kts | 270° |
| 2026-05-01 14:10 | 41.82753 | 39.98497 | 35997 ft | 441 kts | 270° |
| 2026-05-01 14:10 | 41.83070 | 39.90330 | 35994 ft | 441 kts | 270° |
| 2026-05-01 14:11 | 41.83383 | 39.82124 | 35987 ft | 440 kts | 270° |
| 2026-05-01 14:11 | 41.83834 | 39.69917 | 35989 ft | 440 kts | 270° |
| 2026-05-01 14:12 | 41.84134 | 39.61715 | 36004 ft | 440 kts | 270° |
| 2026-05-01 14:12 | 41.84404 | 39.53541 | 35999 ft | 441 kts | 269° |
| 2026-05-01 14:13 | 41.84627 | 39.46753 | 36006 ft | 441 kts | 270° |
| 2026-05-01 14:13 | 41.84966 | 39.37216 | 36001 ft | 440 kts | 270° |
| 2026-05-01 14:14 | 41.85245 | 39.29059 | 36000 ft | 439 kts | 269° |
| 2026-05-01 14:14 | 41.85513 | 39.20945 | 35997 ft | 439 kts | 269° |
| 2026-05-01 14:15 | 41.85777 | 39.12784 | 36004 ft | 439 kts | 269° |
| 2026-05-01 14:15 | 41.86026 | 39.04641 | 35999 ft | 438 kts | 269° |
| 2026-05-01 14:16 | 41.86279 | 38.96498 | 35990 ft | 438 kts | 269° |
| 2026-05-01 14:16 | 41.86519 | 38.88348 | 35994 ft | 438 kts | 269° |
| 2026-05-01 14:17 | 41.86747 | 38.80233 | 35995 ft | 438 kts | 269° |
| 2026-05-01 14:17 | 41.86972 | 38.72116 | 36001 ft | 439 kts | 269° |
| 2026-05-01 14:18 | 41.87202 | 38.63951 | 36000 ft | 440 kts | 269° |
| 2026-05-01 14:18 | 41.87384 | 38.57117 | 35991 ft | 440 kts | 269° |
| 2026-05-01 14:19 | 41.87637 | 38.47623 | 36002 ft | 438 kts | 268° |
| 2026-05-01 14:19 | 41.87840 | 38.39509 | 36001 ft | 438 kts | 269° |
| 2026-05-01 14:20 | 41.88138 | 38.27261 | 36021 ft | 439 kts | 268° |
| 2026-05-01 14:21 | 41.88332 | 38.19146 | 36015 ft | 439 kts | 268° |
| 2026-05-01 14:21 | 41.88515 | 38.10997 | 36018 ft | 438 kts | 268° |
| 2026-05-01 14:22 | 41.88792 | 37.98786 | 36018 ft | 437 kts | 268° |
| 2026-05-01 14:22 | 41.88964 | 37.90673 | 36028 ft | 437 kts | 268° |
| 2026-05-01 14:23 | 41.89130 | 37.82568 | 36023 ft | 438 kts | 268° |
| 2026-05-01 14:23 | 41.89290 | 37.74382 | 36026 ft | 439 kts | 268° |
| 2026-05-01 14:24 | 41.89451 | 37.66267 | 36017 ft | 437 kts | 268° |
| 2026-05-01 14:24 | 41.89597 | 37.58107 | 36013 ft | 436 kts | 268° |
| 2026-05-01 14:25 | 41.89745 | 37.49945 | 36124 ft | 443 kts | 268° |
| 2026-05-01 14:25 | 41.89811 | 37.45777 | 36249 ft | 445 kts | 268° |
| 2026-05-01 14:25 | 41.89882 | 37.41637 | 36379 ft | 445 kts | 268° |
| 2026-05-01 14:26 | 41.89949 | 37.37535 | 36538 ft | 445 kts | 268° |
| 2026-05-01 14:26 | 41.90072 | 37.29244 | 36937 ft | 445 kts | 267° |
| 2026-05-01 14:26 | 41.90137 | 37.25104 | 37094 ft | 446 kts | 267° |
| 2026-05-01 14:27 | 41.90208 | 37.20959 | 37275 ft | 446 kts | 268° |
| 2026-05-01 14:27 | 41.90268 | 37.16843 | 37425 ft | 446 kts | 268° |
| 2026-05-01 14:27 | 41.90319 | 37.12718 | 37558 ft | 446 kts | 267° |
| 2026-05-01 14:28 | 41.90572 | 37.04449 | 37841 ft | 448 kts | 276° |
| 2026-05-01 14:28 | 41.91430 | 37.00406 | 37929 ft | 454 kts | 288° |
| 2026-05-01 14:28 | 41.94062 | 36.92697 | 38046 ft | 455 kts | 288° |
| 2026-05-01 14:29 | 41.96534 | 36.84904 | 38035 ft | 454 kts | 288° |
| 2026-05-01 14:30 | 42.01397 | 36.69375 | 38039 ft | 452 kts | 288° |
| 2026-05-01 14:31 | 42.05011 | 36.57684 | 38054 ft | 453 kts | 288° |
| 2026-05-01 14:31 | 42.07402 | 36.49915 | 38065 ft | 452 kts | 288° |
| 2026-05-01 14:32 | 42.09784 | 36.42139 | 38050 ft | 451 kts | 288° |
| 2026-05-01 14:32 | 42.12178 | 36.34332 | 38060 ft | 450 kts | 287° |
| 2026-05-01 14:33 | 42.14549 | 36.26559 | 38075 ft | 451 kts | 287° |
| 2026-05-01 14:33 | 42.16914 | 36.18765 | 38068 ft | 453 kts | 287° |
| 2026-05-01 14:34 | 42.19288 | 36.10925 | 38073 ft | 454 kts | 287° |
| 2026-05-01 14:34 | 42.21657 | 36.03073 | 38072 ft | 454 kts | 287° |
| 2026-05-01 14:35 | 42.24026 | 35.95212 | 38077 ft | 453 kts | 287° |
| 2026-05-01 14:35 | 42.26389 | 35.87355 | 38041 ft | 452 kts | 287° |
| 2026-05-01 14:36 | 42.28721 | 35.79562 | 38045 ft | 452 kts | 287° |
| 2026-05-01 14:36 | 42.31073 | 35.71688 | 38071 ft | 453 kts | 287° |
| 2026-05-01 14:37 | 42.33409 | 35.63820 | 38068 ft | 453 kts | 287° |
| 2026-05-01 14:37 | 42.35753 | 35.55949 | 38068 ft | 453 kts | 287° |
| 2026-05-01 14:38 | 42.38073 | 35.48095 | 38061 ft | 453 kts | 287° |
| 2026-05-01 14:38 | 42.39239 | 35.44157 | 38190 ft | 453 kts | 287° |
| 2026-05-01 14:38 | 42.40409 | 35.40168 | 38055 ft | 453 kts | 287° |
| 2026-05-01 14:39 | 42.42715 | 35.32336 | 38139 ft | 450 kts | 286° |
| 2026-05-01 14:39 | 42.45025 | 35.24450 | 38091 ft | 451 kts | 286° |
| 2026-05-01 14:40 | 42.47334 | 35.16551 | 38081 ft | 452 kts | 286° |
| 2026-05-01 14:40 | 42.49622 | 35.08698 | 38069 ft | 453 kts | 286° |
| 2026-05-01 14:41 | 42.51931 | 35.00742 | 38080 ft | 454 kts | 287° |
| 2026-05-01 14:41 | 42.54214 | 34.92833 | 38096 ft | 454 kts | 286° |
| 2026-05-01 14:42 | 42.56517 | 34.84847 | 38087 ft | 454 kts | 287° |
| 2026-05-01 14:42 | 42.58802 | 34.76920 | 38107 ft | 453 kts | 286° |
| 2026-05-01 14:43 | 42.61081 | 34.68977 | 38094 ft | 453 kts | 286° |
| 2026-05-01 14:43 | 42.63357 | 34.61021 | 38096 ft | 454 kts | 287° |
| 2026-05-01 14:44 | 42.65624 | 34.53056 | 38093 ft | 454 kts | 287° |
| 2026-05-01 14:44 | 42.69029 | 34.41075 | 38103 ft | 454 kts | 287° |
| 2026-05-01 14:45 | 42.72399 | 34.29129 | 38104 ft | 453 kts | 286° |
| 2026-05-01 14:46 | 42.74649 | 34.21192 | 38111 ft | 454 kts | 286° |
| 2026-05-01 14:46 | 42.77980 | 34.09135 | 38113 ft | 455 kts | 285° |
| 2026-05-01 14:47 | 42.80401 | 34.01197 | 38096 ft | 457 kts | 288° |
| 2026-05-01 14:48 | 42.84069 | 33.89283 | 38121 ft | 457 kts | 288° |
| 2026-05-01 14:48 | 42.87715 | 33.77323 | 38095 ft | 457 kts | 288° |
| 2026-05-01 14:49 | 42.92539 | 33.61383 | 38100 ft | 457 kts | 288° |
| 2026-05-01 14:50 | 42.97349 | 33.45384 | 38118 ft | 460 kts | 288° |
| 2026-05-01 14:51 | 43.00964 | 33.33305 | 38106 ft | 459 kts | 288° |
| 2026-05-01 14:52 | 43.04563 | 33.21200 | 38132 ft | 459 kts | 288° |
| 2026-05-01 14:53 | 43.08136 | 33.09141 | 38114 ft | 459 kts | 288° |
| 2026-05-01 14:53 | 43.10537 | 33.01021 | 38131 ft | 461 kts | 288° |
| 2026-05-01 14:54 | 43.12926 | 32.92900 | 38136 ft | 462 kts | 288° |
| 2026-05-01 14:54 | 43.15317 | 32.84729 | 38134 ft | 461 kts | 288° |
| 2026-05-01 14:55 | 43.17688 | 32.76616 | 38134 ft | 461 kts | 288° |
| 2026-05-01 14:55 | 43.20040 | 32.68549 | 38142 ft | 460 kts | 289° |
| 2026-05-01 14:56 | 43.22393 | 32.60439 | 38149 ft | 460 kts | 288° |
| 2026-05-01 14:56 | 43.24754 | 32.52293 | 38147 ft | 461 kts | 289° |
| 2026-05-01 14:57 | 43.27111 | 32.44147 | 38153 ft | 462 kts | 289° |
| 2026-05-01 14:57 | 43.30636 | 32.31852 | 38153 ft | 462 kts | 288° |
| 2026-05-01 14:58 | 43.32975 | 32.23699 | 38165 ft | 462 kts | 288° |
| 2026-05-01 14:58 | 43.35327 | 32.15469 | 38155 ft | 461 kts | 288° |
| 2026-05-01 14:59 | 43.37640 | 32.07301 | 38160 ft | 462 kts | 288° |
| 2026-05-01 14:59 | 43.39957 | 31.99136 | 38162 ft | 462 kts | 289° |
| 2026-05-01 15:00 | 43.43457 | 31.86768 | 38173 ft | 464 kts | 289° |
| 2026-05-01 15:01 | 43.45760 | 31.78554 | 38177 ft | 464 kts | 289° |
| 2026-05-01 15:01 | 43.48044 | 31.70302 | 38179 ft | 463 kts | 289° |
| 2026-05-01 15:02 | 43.50365 | 31.62074 | 38178 ft | 462 kts | 288° |
| 2026-05-01 15:02 | 43.52655 | 31.53841 | 38185 ft | 462 kts | 289° |
| 2026-05-01 15:03 | 43.54948 | 31.45595 | 38190 ft | 462 kts | 289° |
| 2026-05-01 15:03 | 43.57231 | 31.37332 | 38196 ft | 463 kts | 289° |
| 2026-05-01 15:04 | 43.59516 | 31.29036 | 38210 ft | 463 kts | 288° |
| 2026-05-01 15:04 | 43.61785 | 31.20770 | 38203 ft | 463 kts | 288° |
| 2026-05-01 15:05 | 43.64053 | 31.12495 | 38206 ft | 463 kts | 288° |
| 2026-05-01 15:05 | 43.66328 | 31.04163 | 38209 ft | 464 kts | 288° |
| 2026-05-01 15:06 | 43.68547 | 30.95896 | 38211 ft | 463 kts | 288° |
| 2026-05-01 15:06 | 43.70740 | 30.87539 | 38215 ft | 463 kts | 288° |
| 2026-05-01 15:07 | 43.72925 | 30.79179 | 38212 ft | 464 kts | 288° |
| 2026-05-01 15:07 | 43.75109 | 30.70784 | 38209 ft | 465 kts | 288° |
| 2026-05-01 15:08 | 43.77285 | 30.62415 | 38208 ft | 465 kts | 288° |
| 2026-05-01 15:08 | 43.79445 | 30.54024 | 38208 ft | 465 kts | 288° |
| 2026-05-01 15:09 | 43.81934 | 30.45847 | 38205 ft | 464 kts | 296° |
| 2026-05-01 15:09 | 43.84800 | 30.37830 | 38217 ft | 464 kts | 295° |
| 2026-05-01 15:10 | 43.87604 | 30.29861 | 38222 ft | 464 kts | 294° |
| 2026-05-01 15:10 | 43.91831 | 30.17766 | 38212 ft | 466 kts | 294° |
| 2026-05-01 15:11 | 43.96045 | 30.05653 | 38215 ft | 467 kts | 294° |
| 2026-05-01 15:12 | 43.98853 | 29.97553 | 38217 ft | 468 kts | 294° |
| 2026-05-01 15:12 | 44.03057 | 29.85365 | 38219 ft | 467 kts | 294° |
| 2026-05-01 15:14 | 44.10010 | 29.65103 | 38238 ft | 467 kts | 294° |
| 2026-05-01 15:14 | 44.14183 | 29.52859 | 38240 ft | 467 kts | 295° |
| 2026-05-01 15:15 | 44.19707 | 29.36563 | 38243 ft | 467 kts | 295° |
| 2026-05-01 15:16 | 44.25237 | 29.20186 | 38248 ft | 467 kts | 294° |
| 2026-05-01 15:18 | 44.32095 | 28.99695 | 38252 ft | 469 kts | 294° |
| 2026-05-01 15:19 | 44.37583 | 28.83168 | 38247 ft | 470 kts | 295° |
| 2026-05-01 15:19 | 44.41708 | 28.70716 | 38253 ft | 469 kts | 295° |
| 2026-05-01 15:20 | 44.45795 | 28.58292 | 38247 ft | 470 kts | 295° |
| 2026-05-01 15:21 | 44.48522 | 28.49979 | 38246 ft | 471 kts | 295° |
| 2026-05-01 15:21 | 44.51231 | 28.41688 | 38249 ft | 471 kts | 295° |
| 2026-05-01 15:22 | 44.55300 | 28.29173 | 38236 ft | 471 kts | 294° |
| 2026-05-01 15:22 | 44.57944 | 28.20780 | 38236 ft | 472 kts | 294° |
| 2026-05-01 15:23 | 44.60578 | 28.12403 | 38239 ft | 473 kts | 294° |
| 2026-05-01 15:23 | 44.63239 | 28.03896 | 38234 ft | 474 kts | 294° |
| 2026-05-01 15:24 | 44.65877 | 27.95444 | 38236 ft | 474 kts | 294° |
| 2026-05-01 15:24 | 44.68496 | 27.87018 | 38235 ft | 473 kts | 294° |
| 2026-05-01 15:25 | 44.71127 | 27.78533 | 38239 ft | 473 kts | 294° |
| 2026-05-01 15:25 | 44.73739 | 27.70079 | 38238 ft | 473 kts | 294° |
| 2026-05-01 15:26 | 44.76351 | 27.61588 | 38242 ft | 474 kts | 294° |
| 2026-05-01 15:26 | 44.78958 | 27.53090 | 38238 ft | 474 kts | 294° |
| 2026-05-01 15:27 | 44.81568 | 27.44539 | 38235 ft | 475 kts | 294° |
| 2026-05-01 15:28 | 44.85459 | 27.31768 | 38242 ft | 475 kts | 294° |
| 2026-05-01 15:28 | 44.88043 | 27.23249 | 38241 ft | 475 kts | 294° |
| 2026-05-01 15:29 | 44.91932 | 27.10373 | 38237 ft | 475 kts | 294° |
| 2026-05-01 15:30 | 44.97048 | 26.93318 | 38236 ft | 474 kts | 294° |
| 2026-05-01 15:31 | 45.04717 | 26.67546 | 38247 ft | 476 kts | 294° |
| 2026-05-01 15:32 | 45.09821 | 26.50267 | 38251 ft | 475 kts | 294° |
| 2026-05-01 15:34 | 45.17386 | 26.24393 | 38260 ft | 475 kts | 294° |